createdAt,value
2022-10-06T00:01:44.289Z,11.02
2022-10-06T00:04:14.467Z,10.98
2022-10-06T00:06:44.726Z,10.95
2022-10-06T00:09:22.577Z,10.95
2022-10-06T00:11:55.852Z,10.90
2022-10-06T00:14:28.360Z,10.87
2022-10-06T00:17:00.884Z,10.86
2022-10-06T00:19:32.154Z,10.82
2022-10-06T00:22:02.386Z,10.81
2022-10-06T00:24:35.279Z,10.78
2022-10-06T00:27:05.943Z,10.77
2022-10-06T00:29:36.962Z,10.76
2022-10-06T00:32:09.612Z,10.76
2022-10-06T00:34:39.835Z,10.75
2022-10-06T00:37:10.060Z,10.74
2022-10-06T00:39:43.030Z,10.73
2022-10-06T00:42:24.925Z,10.72
2022-10-06T00:44:56.177Z,10.66
2022-10-06T00:47:35.718Z,10.67
2022-10-06T00:50:08.324Z,10.65
2022-10-06T00:52:38.999Z,10.68
2022-10-06T00:55:12.149Z,10.68
2022-10-06T00:57:44.106Z,10.66
2022-10-06T01:00:15.543Z,10.67
2022-10-06T01:02:51.124Z,10.68
2022-10-06T01:05:29.031Z,10.68
2022-10-06T01:07:59.959Z,10.68
2022-10-06T01:10:33.271Z,10.66
2022-10-06T01:13:04.008Z,10.65
2022-10-06T01:15:34.221Z,10.64
2022-10-06T01:18:09.026Z,10.62
2022-10-06T01:20:43.649Z,10.58
2022-10-06T01:23:19.653Z,10.56
2022-10-06T01:25:49.890Z,10.53
2022-10-06T01:28:21.265Z,10.54
2022-10-06T01:30:58.433Z,10.55
2022-10-06T01:33:29.892Z,10.53
2022-10-06T01:36:00.322Z,10.51
2022-10-06T01:38:36.695Z,10.50
2022-10-06T01:41:06.606Z,10.50
2022-10-06T01:43:39.100Z,10.48
2022-10-06T01:46:09.449Z,10.51
2022-10-06T01:48:47.017Z,10.51
2022-10-06T01:51:18.208Z,10.51
2022-10-06T01:53:53.279Z,10.55
2022-10-06T01:56:23.996Z,10.56
2022-10-06T01:58:59.626Z,10.55
2022-10-06T02:01:35.675Z,10.55
2022-10-06T02:04:06.045Z,10.55
2022-10-06T02:06:36.893Z,10.54
2022-10-06T02:09:11.976Z,10.59
2022-10-06T02:11:42.648Z,10.58
2022-10-06T02:14:13.364Z,10.57
2022-10-06T02:16:43.800Z,10.62
2022-10-06T02:19:14.074Z,10.62
2022-10-06T02:21:44.224Z,10.61
2022-10-06T02:24:17.113Z,10.63
2022-10-06T02:26:54.501Z,10.62
2022-10-06T02:29:27.472Z,10.61
2022-10-06T02:31:59.976Z,10.59
2022-10-06T02:34:30.464Z,10.56
2022-10-06T02:37:00.889Z,10.53
2022-10-06T02:39:36.419Z,10.51
2022-10-06T02:42:09.351Z,10.48
2022-10-06T02:44:40.009Z,10.44
2022-10-06T02:47:16.180Z,10.40
2022-10-06T02:49:46.290Z,10.42
2022-10-06T02:52:18.744Z,10.40
2022-10-06T02:54:52.522Z,10.40
2022-10-06T02:57:23.059Z,10.41
2022-10-06T02:59:53.623Z,10.40
2022-10-06T03:02:24.091Z,10.37
2022-10-06T03:04:54.630Z,10.38
2022-10-06T03:07:27.592Z,10.36
2022-10-06T03:10:00.940Z,10.35
2022-10-06T03:12:31.159Z,10.34
2022-10-06T03:15:06.425Z,10.30
2022-10-06T03:17:39.659Z,10.28
2022-10-06T03:20:11.781Z,10.20
2022-10-06T03:22:43.356Z,10.18
2022-10-06T03:25:17.199Z,10.11
2022-10-06T03:27:47.335Z,10.06
2022-10-06T03:30:18.261Z,10.05
2022-10-06T03:32:48.671Z,10.01
2022-10-06T03:35:19.057Z,9.96
2022-10-06T03:37:49.404Z,9.94
2022-10-06T03:40:22.306Z,9.90
2022-10-06T03:42:52.528Z,9.85
2022-10-06T03:45:22.752Z,9.81
2022-10-06T03:47:59.366Z,9.74
2022-10-06T03:50:29.982Z,9.68
2022-10-06T03:53:00.539Z,9.66
2022-10-06T03:55:33.335Z,9.63
2022-10-06T03:58:07.465Z,9.58
2022-10-06T04:00:38.548Z,9.54
2022-10-06T04:03:08.665Z,9.53
2022-10-06T04:05:38.884Z,9.52
2022-10-06T04:08:09.102Z,9.50
2022-10-06T04:10:41.815Z,9.49
2022-10-06T04:13:14.242Z,9.44
2022-10-06T04:15:44.395Z,9.42
2022-10-06T04:18:15.233Z,9.38
2022-10-06T04:20:46.430Z,9.30
2022-10-06T04:23:20.961Z,9.27
2022-10-06T04:25:56.045Z,9.22
2022-10-06T04:28:26.820Z,9.21
2022-10-06T04:31:04.773Z,9.18
2022-10-06T04:33:35.337Z,9.05
2022-10-06T04:36:11.442Z,9.11
2022-10-06T04:38:41.605Z,9.06
2022-10-06T04:41:21.397Z,9.04
2022-10-06T04:43:55.494Z,8.99
2022-10-06T04:46:42.785Z,8.96
2022-10-06T04:49:20.786Z,8.93
2022-10-06T04:51:51.656Z,8.93
2022-10-06T04:54:22.398Z,8.90
2022-10-06T04:56:56.856Z,8.88
2022-10-06T04:59:42.268Z,8.88
2022-10-06T05:02:17.136Z,8.81
2022-10-06T05:04:48.038Z,8.88
2022-10-06T05:07:21.197Z,8.88
2022-10-06T05:10:00.474Z,8.92
2022-10-06T05:12:33.282Z,8.96
2022-10-06T05:15:03.572Z,8.97
2022-10-06T05:17:33.785Z,9.00
2022-10-06T05:20:04.195Z,9.04
2022-10-06T05:22:35.213Z,9.06
2022-10-06T05:25:08.336Z,9.10
2022-10-06T05:27:41.099Z,9.13
2022-10-06T05:30:20.094Z,9.18
2022-10-06T05:32:52.291Z,9.22
2022-10-06T05:35:22.496Z,9.28
2022-10-06T05:37:52.719Z,9.36
2022-10-06T05:40:26.331Z,9.39
2022-10-06T05:43:03.796Z,9.53
2022-10-06T05:45:34.483Z,9.71
2022-10-06T05:48:04.780Z,9.79
2022-10-06T05:50:37.083Z,9.96
2022-10-06T05:53:07.606Z,10.15
2022-10-06T05:55:40.635Z,10.40
2022-10-06T05:58:28.172Z,10.63
2022-10-06T06:00:58.575Z,10.86
2022-10-06T06:03:29.054Z,11.14
2022-10-06T06:06:00.566Z,11.39
2022-10-06T06:08:33.612Z,11.75
2022-10-06T06:11:13.208Z,12.12
2022-10-06T06:13:45.939Z,12.57
2022-10-06T06:16:15.957Z,13.06
2022-10-06T06:18:47.006Z,13.52
2022-10-06T06:21:17.223Z,13.89
2022-10-06T06:23:49.304Z,14.19
2022-10-06T06:26:23.611Z,14.45
2022-10-06T06:29:00.349Z,14.38
2022-10-06T06:31:32.438Z,14.17
2022-10-06T06:34:07.686Z,14.04
2022-10-06T06:36:41.199Z,13.91
2022-10-06T06:39:13.320Z,13.76
2022-10-06T06:41:45.238Z,13.59
2022-10-06T06:44:18.109Z,13.54
2022-10-06T06:46:51.468Z,13.47
2022-10-06T06:49:22.699Z,13.46
2022-10-06T06:51:54.486Z,13.40
2022-10-06T06:54:27.831Z,13.41
2022-10-06T06:56:58.027Z,13.41
2022-10-06T06:59:37.098Z,13.41
2022-10-06T07:02:12.070Z,13.40
2022-10-06T07:04:49.443Z,13.42
2022-10-06T07:07:21.143Z,13.43
2022-10-06T07:09:52.880Z,13.47
2022-10-06T07:12:25.288Z,13.47
2022-10-06T07:15:16.144Z,13.57
2022-10-06T07:18:10.361Z,13.81
2022-10-06T07:20:53.028Z,13.98
2022-10-06T07:23:36.474Z,14.35
2022-10-06T07:26:07.498Z,14.81
2022-10-06T07:28:42.512Z,15.47
2022-10-06T07:31:17.868Z,16.00
2022-10-06T07:33:48.108Z,16.43
2022-10-06T07:36:18.574Z,16.96
2022-10-06T07:38:51.855Z,17.33
2022-10-06T07:41:24.459Z,17.67
2022-10-06T07:43:57.268Z,17.83
2022-10-06T07:46:31.096Z,17.88
2022-10-06T07:49:01.075Z,17.91
2022-10-06T07:51:34.294Z,18.09
2022-10-06T07:54:05.056Z,18.15
2022-10-06T07:56:35.297Z,18.31
2022-10-06T07:59:05.695Z,18.28
2022-10-06T08:01:39.153Z,17.29
2022-10-06T08:04:12.939Z,17.84
2022-10-06T08:06:43.219Z,18.29
2022-10-06T08:09:15.898Z,18.32
2022-10-06T08:11:47.505Z,18.51
2022-10-06T08:14:19.138Z,18.79
2022-10-06T08:16:52.034Z,19.03
2022-10-06T08:19:22.171Z,19.22
2022-10-06T08:21:53.152Z,18.82
2022-10-06T08:24:23.355Z,18.41
2022-10-06T08:26:53.694Z,18.60
2022-10-06T08:29:24.177Z,18.91
2022-10-06T08:31:57.404Z,19.28
2022-10-06T08:34:27.772Z,19.42
2022-10-06T08:37:20.872Z,19.18
2022-10-06T08:39:49.293Z,19.35
2022-10-06T08:42:27.468Z,19.47
2022-10-06T08:45:01.801Z,19.64
2022-10-06T08:47:37.804Z,19.89
2022-10-06T08:50:15.320Z,19.88
2022-10-06T08:52:55.065Z,19.83
2022-10-06T08:55:38.644Z,19.96
2022-10-06T08:58:32.389Z,20.14
2022-10-06T09:01:16.958Z,20.06
2022-10-06T09:03:52.418Z,20.23
2022-10-06T09:06:38.231Z,19.78
2022-10-06T09:09:28.785Z,20.22
2022-10-06T09:12:09.767Z,20.18
2022-10-06T09:14:48.172Z,20.61
2022-10-06T09:17:25.221Z,20.83
2022-10-06T09:20:07.723Z,20.94
2022-10-06T09:22:40.025Z,20.91
2022-10-06T09:25:29.182Z,20.97
2022-10-06T09:28:00.755Z,21.04
2022-10-06T09:30:32.347Z,21.10
2022-10-06T09:33:05.093Z,21.17
2022-10-06T09:36:12.135Z,21.00
2022-10-06T09:38:58.442Z,21.10
2022-10-06T09:41:37.303Z,21.11
2022-10-06T09:44:10.148Z,21.06
2022-10-06T09:46:41.979Z,21.36
2022-10-06T09:49:21.313Z,21.78
2022-10-06T09:52:15.320Z,22.00
2022-10-06T09:54:46.810Z,22.16
2022-10-06T09:57:24.196Z,22.18
2022-10-06T09:59:59.305Z,22.05
2022-10-06T10:02:37.377Z,22.10
2022-10-06T10:05:21.503Z,22.30
2022-10-06T10:08:04.030Z,22.48
2022-10-06T10:10:35.604Z,22.29
2022-10-06T10:13:19.924Z,22.16
2022-10-06T10:15:58.693Z,22.38
2022-10-06T10:18:31.249Z,22.56
2022-10-06T10:21:05.303Z,22.59
2022-10-06T10:23:40.528Z,22.70
2022-10-06T10:26:20.626Z,22.99
2022-10-06T10:29:18.117Z,23.31
2022-10-06T10:32:08.463Z,23.47
2022-10-06T10:34:59.212Z,23.13
2022-10-06T10:37:40.865Z,22.88
2022-10-06T10:40:32.779Z,22.65
2022-10-06T10:43:15.128Z,22.80
2022-10-06T10:45:54.428Z,22.84
2022-10-06T10:48:31.216Z,22.91
2022-10-06T10:51:10.648Z,22.83
2022-10-06T10:53:49.905Z,22.77
2022-10-06T10:56:26.833Z,22.55
2022-10-06T10:59:04.505Z,22.59
2022-10-06T11:01:40.699Z,22.43
2022-10-06T11:04:17.041Z,22.90
2022-10-06T11:07:13.945Z,23.09
2022-10-06T11:10:04.079Z,23.31
2022-10-06T11:12:57.232Z,23.37
2022-10-06T11:15:39.865Z,23.54
2022-10-06T11:18:24.558Z,23.51
2022-10-06T11:21:01.279Z,23.76
2022-10-06T11:23:47.478Z,23.72
2022-10-06T11:26:39.876Z,23.55
2022-10-06T11:29:29.766Z,23.84
2022-10-06T11:32:11.908Z,23.80
2022-10-06T11:34:45.001Z,23.72
2022-10-06T11:37:26.728Z,23.76
2022-10-06T11:40:09.658Z,23.58
2022-10-06T11:42:47.716Z,23.77
2022-10-06T11:45:27.000Z,23.63
2022-10-06T11:48:22.295Z,23.53
2022-10-06T11:50:55.912Z,23.18
2022-10-06T11:53:43.435Z,23.04
2022-10-06T11:56:37.499Z,22.87
2022-10-06T11:59:14.458Z,22.75
2022-10-06T12:02:00.941Z,22.61
2022-10-06T12:04:32.072Z,22.54
2022-10-06T12:07:03.684Z,22.59
2022-10-06T12:09:53.144Z,22.60
2022-10-06T12:13:31.870Z,22.66
2022-10-06T12:19:22.839Z,22.31
2022-10-06T12:22:01.219Z,22.13
2022-10-06T12:24:41.973Z,21.93
2022-10-06T12:27:31.489Z,21.94
2022-10-06T12:30:08.391Z,21.73
2022-10-06T12:32:49.448Z,21.62
2022-10-06T12:35:40.637Z,21.72
2022-10-06T12:38:44.892Z,21.89
2022-10-06T12:41:38.986Z,21.98
2022-10-06T12:44:26.209Z,21.96
2022-10-06T12:46:57.878Z,21.91
2022-10-06T12:49:47.079Z,21.78
2022-10-06T12:52:48.189Z,21.78
2022-10-06T12:55:41.608Z,21.85
2022-10-06T12:58:20.426Z,21.83
2022-10-06T13:00:52.254Z,21.91
2022-10-06T13:03:27.464Z,21.71
2022-10-06T13:06:01.098Z,21.77
2022-10-06T13:08:42.530Z,21.88
2022-10-06T13:11:23.330Z,21.86
2022-10-06T13:13:55.460Z,22.13
2022-10-06T13:16:29.121Z,22.25
2022-10-06T13:19:00.295Z,22.31
2022-10-06T13:21:32.945Z,22.20
2022-10-06T13:24:06.967Z,22.13
2022-10-06T13:26:37.489Z,22.18
2022-10-06T13:29:08.176Z,22.17
2022-10-06T13:31:38.945Z,21.99
2022-10-06T13:34:13.422Z,21.89
2022-10-06T13:36:47.998Z,21.91
2022-10-06T13:39:32.285Z,21.87
2022-10-06T13:42:05.810Z,21.78
2022-10-06T13:44:42.998Z,21.68
2022-10-06T13:47:20.076Z,21.57
2022-10-06T13:49:55.797Z,21.57
2022-10-06T13:52:33.259Z,21.63
2022-10-06T13:55:11.898Z,21.51
2022-10-06T13:57:46.743Z,21.49
2022-10-06T14:00:27.620Z,21.44
2022-10-06T14:02:59.855Z,21.41
2022-10-06T14:05:37.884Z,21.39
2022-10-06T14:08:22.177Z,21.39
2022-10-06T14:10:57.497Z,21.39
2022-10-06T14:13:30.359Z,21.37
2022-10-06T14:16:09.015Z,21.35
2022-10-06T14:18:45.184Z,21.33
2022-10-06T14:21:23.221Z,21.25
2022-10-06T14:23:57.723Z,21.21
2022-10-06T14:26:34.511Z,21.21
2022-10-06T14:29:04.596Z,21.22
2022-10-06T14:31:34.887Z,21.18
2022-10-06T14:34:14.041Z,21.16
2022-10-06T14:36:45.790Z,21.16
2022-10-06T14:39:17.619Z,21.14
2022-10-06T14:41:53.134Z,21.13
2022-10-06T14:44:25.679Z,21.07
2022-10-06T14:46:58.257Z,21.01
2022-10-06T14:49:29.121Z,20.95
2022-10-06T14:51:59.282Z,20.92
2022-10-06T14:54:29.788Z,20.90
2022-10-06T14:57:02.711Z,20.88
2022-10-06T14:59:35.969Z,20.85
2022-10-06T15:02:06.189Z,20.78
2022-10-06T15:04:40.985Z,20.74
2022-10-06T15:07:26.516Z,20.70
2022-10-06T15:10:05.971Z,20.60
2022-10-06T15:12:42.190Z,20.59
2022-10-06T15:15:13.281Z,20.51
2022-10-06T15:17:46.587Z,20.44
2022-10-06T15:20:18.537Z,20.35
2022-10-06T15:22:48.721Z,20.28
2022-10-06T15:25:31.293Z,20.21
2022-10-06T15:28:18.627Z,20.12
2022-10-06T15:30:52.250Z,19.99
2022-10-06T15:33:23.587Z,19.89
2022-10-06T15:36:19.269Z,19.78
2022-10-06T15:38:49.863Z,19.62
2022-10-06T15:41:22.416Z,19.50
2022-10-06T15:43:58.992Z,19.37
2022-10-06T15:46:31.815Z,19.22
2022-10-06T15:49:03.795Z,19.11
2022-10-06T15:51:38.545Z,18.97
2022-10-06T15:54:08.747Z,18.85
2022-10-06T15:56:38.880Z,18.73
2022-10-06T15:59:12.737Z,18.58
2022-10-06T16:01:47.063Z,18.40
2022-10-06T16:04:30.757Z,18.35
2022-10-06T16:07:01.011Z,18.25
2022-10-06T16:09:38.116Z,18.14
2022-10-06T16:12:13.241Z,18.06
2022-10-06T16:14:46.938Z,17.95
2022-10-06T16:17:17.910Z,17.78
2022-10-06T16:19:49.592Z,17.70
2022-10-06T16:22:22.028Z,17.64
2022-10-06T16:24:52.942Z,17.55
2022-10-06T16:27:23.164Z,17.41
2022-10-06T16:29:56.067Z,17.28
2022-10-06T16:32:26.280Z,17.20
2022-10-06T16:34:56.593Z,17.14
2022-10-06T16:37:27.263Z,17.02
2022-10-06T16:40:00.223Z,16.89
2022-10-06T16:42:30.309Z,16.77
2022-10-06T16:45:05.968Z,16.61
2022-10-06T16:47:36.233Z,16.46
2022-10-06T16:50:07.436Z,16.33
2022-10-06T16:52:38.793Z,16.27
2022-10-06T16:55:09.749Z,16.20
2022-10-06T16:57:40.235Z,16.09
2022-10-06T17:00:17.553Z,16.03
2022-10-06T17:02:48.283Z,15.94
2022-10-06T17:05:18.572Z,15.86
2022-10-06T17:07:54.542Z,15.81
2022-10-06T17:10:29.806Z,15.77
2022-10-06T17:13:02.665Z,15.70
2022-10-06T17:15:35.588Z,15.63
2022-10-06T17:18:05.846Z,15.55
2022-10-06T17:20:41.219Z,15.49
2022-10-06T17:23:11.841Z,15.42
2022-10-06T17:25:44.041Z,15.39
2022-10-06T17:28:14.739Z,15.37
2022-10-06T17:31:01.332Z,15.32
2022-10-06T17:33:36.918Z,15.27
2022-10-06T17:36:11.042Z,15.23
2022-10-06T17:38:44.258Z,15.20
2022-10-06T17:41:19.346Z,15.15
2022-10-06T17:43:52.163Z,15.11
2022-10-06T17:46:26.055Z,14.99
2022-10-06T17:48:57.986Z,14.97
2022-10-06T17:51:31.067Z,14.91
2022-10-06T17:54:07.358Z,14.89
2022-10-06T17:56:37.928Z,14.87
2022-10-06T17:59:10.148Z,14.81
2022-10-06T18:01:45.033Z,14.78
2022-10-06T18:04:17.419Z,14.78
2022-10-06T18:06:49.498Z,14.80
2022-10-06T18:09:23.451Z,14.78
2022-10-06T18:11:56.019Z,14.78
2022-10-06T18:14:31.356Z,14.77
2022-10-06T18:17:08.970Z,14.77
2022-10-06T18:19:40.337Z,14.74
2022-10-06T18:22:13.070Z,14.75
2022-10-06T18:24:43.352Z,14.73
2022-10-06T18:27:18.929Z,14.69
2022-10-06T18:29:50.420Z,14.63
2022-10-06T18:38:03.759Z,14.62
2022-10-06T18:40:36.326Z,14.58
2022-10-06T18:43:06.571Z,14.53
2022-10-06T18:45:51.683Z,14.54
2022-10-06T18:48:37.172Z,14.53
2022-10-06T18:51:10.426Z,14.48
2022-10-06T18:53:40.654Z,14.51
2022-10-06T18:56:10.982Z,14.46
2022-10-06T18:58:42.396Z,14.44
2022-10-06T19:01:13.270Z,14.39
2022-10-06T19:03:49.869Z,14.33
2022-10-06T19:06:20.066Z,14.33
2022-10-06T19:08:57.894Z,14.28
2022-10-06T19:11:40.606Z,14.24
2022-10-06T19:14:11.067Z,14.21
2022-10-06T19:16:41.801Z,14.19
2022-10-06T19:19:19.753Z,14.17
2022-10-06T19:21:57.212Z,14.12
2022-10-06T19:24:27.425Z,14.06
2022-10-06T19:27:00.983Z,14.05
2022-10-06T19:29:37.031Z,13.99
2022-10-06T19:32:12.223Z,13.98
2022-10-06T19:34:47.158Z,13.90
2022-10-06T19:37:18.406Z,13.89
2022-10-06T19:39:51.106Z,13.89
2022-10-06T19:42:34.721Z,13.88
2022-10-06T19:45:05.433Z,13.89
2022-10-06T19:47:35.791Z,13.85
2022-10-06T19:50:12.720Z,13.82
2022-10-06T19:52:45.364Z,13.79
2022-10-06T19:55:15.710Z,13.76
2022-10-06T19:57:46.207Z,13.70
2022-10-06T20:00:17.909Z,13.70
2022-10-06T20:02:48.325Z,13.70
2022-10-06T20:05:23.783Z,13.65
2022-10-06T20:07:57.070Z,13.66
2022-10-06T20:10:28.427Z,13.65
2022-10-06T20:13:06.532Z,13.67
2022-10-06T20:15:38.103Z,13.67
2022-10-06T20:18:08.500Z,13.68
2022-10-06T20:20:41.356Z,13.70
2022-10-06T20:23:11.572Z,13.71
2022-10-06T20:25:41.898Z,13.70
2022-10-06T20:28:13.187Z,13.70
2022-10-06T20:30:50.130Z,13.73
2022-10-06T20:33:22.434Z,13.70
2022-10-06T20:35:56.035Z,13.65
2022-10-06T20:38:46.343Z,13.58
2022-10-06T20:41:16.651Z,13.55
2022-10-06T20:43:46.946Z,13.54
2022-10-06T20:46:17.419Z,13.52
2022-10-06T20:48:48.497Z,13.50
2022-10-06T20:51:26.918Z,13.44
2022-10-06T20:54:00.570Z,13.40
2022-10-06T20:56:33.815Z,13.39
2022-10-06T20:59:04.213Z,13.34
2022-10-06T21:01:34.514Z,13.31
2022-10-06T21:04:05.197Z,13.28
2022-10-06T21:06:40.396Z,13.28
2022-10-06T21:09:14.042Z,13.19
2022-10-06T21:11:44.407Z,13.24
2022-10-06T21:14:15.035Z,13.29
2022-10-06T21:16:47.282Z,13.28
2022-10-06T21:19:19.683Z,13.28
2022-10-06T21:21:53.792Z,13.27
2022-10-06T21:24:26.011Z,13.26
2022-10-06T21:26:56.251Z,13.27
2022-10-06T21:29:27.427Z,13.24
2022-10-06T21:31:57.751Z,13.22
2022-10-06T21:34:29.132Z,13.21
2022-10-06T21:37:02.102Z,13.21
2022-10-06T21:39:32.291Z,13.20
2022-10-06T21:42:02.474Z,13.20
2022-10-06T21:44:33.146Z,13.19
2022-10-06T21:47:04.116Z,13.15
2022-10-06T21:49:34.276Z,13.12
2022-10-06T21:52:11.334Z,13.09
2022-10-06T21:54:41.546Z,13.05
2022-10-06T21:57:11.698Z,13.06
2022-10-06T21:59:42.344Z,13.07
2022-10-06T22:02:13.171Z,13.10
2022-10-06T22:04:43.239Z,13.11
2022-10-06T22:07:16.069Z,13.10
2022-10-06T22:09:48.318Z,13.08
2022-10-06T22:12:18.758Z,13.07
2022-10-06T22:14:48.885Z,13.07
2022-10-06T22:17:19.044Z,13.04
2022-10-06T22:19:49.774Z,13.05
2022-10-06T22:22:23.112Z,13.06
2022-10-06T22:24:54.315Z,13.03
2022-10-06T22:27:25.353Z,13.04
2022-10-06T22:29:59.140Z,13.05
2022-10-06T22:32:29.276Z,12.99
2022-10-06T22:35:02.543Z,12.98
2022-10-06T22:37:37.911Z,12.96
2022-10-06T22:40:09.595Z,12.96
2022-10-06T22:42:39.781Z,12.94
2022-10-06T22:45:10.494Z,12.93
2022-10-06T22:47:40.793Z,12.91
2022-10-06T22:50:11.586Z,12.92
2022-10-06T22:52:44.403Z,12.89
2022-10-06T22:55:14.565Z,12.89
2022-10-06T22:57:48.043Z,12.88
2022-10-06T23:00:18.796Z,12.88
2022-10-06T23:02:49.260Z,12.83
2022-10-06T23:05:19.414Z,12.84
2022-10-06T23:07:54.562Z,12.83
2022-10-06T23:10:25.270Z,12.84
2022-10-06T23:12:57.295Z,12.80
2022-10-06T23:15:31.322Z,12.77
2022-10-06T23:18:01.622Z,12.76
2022-10-06T23:20:31.727Z,12.76
2022-10-06T23:23:05.027Z,12.74
2022-10-06T23:25:42.244Z,12.72
2022-10-06T23:28:13.170Z,12.73
2022-10-06T23:30:43.595Z,12.71
2022-10-06T23:33:13.749Z,12.72
2022-10-06T23:35:46.969Z,12.70
2022-10-06T23:38:19.759Z,12.76
2022-10-06T23:40:50.828Z,12.75
2022-10-06T23:43:25.526Z,12.73
2022-10-06T23:45:55.791Z,12.74
2022-10-06T23:48:26.407Z,12.77
2022-10-06T23:51:01.357Z,12.76
2022-10-06T23:53:37.279Z,12.75
2022-10-06T23:56:13.742Z,12.71
2022-10-06T23:58:44.613Z,12.68
